createdAt,value
2017-12-02T05:00:44.977Z,1018.68
2017-12-02T05:01:11.382Z,1018.72
2017-12-02T05:01:36.861Z,1018.66
2017-12-02T05:02:45.560Z,1018.66
2017-12-02T05:03:11.043Z,1018.69
2017-12-02T05:03:36.529Z,1018.66
2017-12-02T05:04:01.991Z,1018.72
2017-12-02T05:04:27.471Z,1018.67
2017-12-02T05:04:52.961Z,1018.64
2017-12-02T05:05:18.446Z,1018.64
2017-12-02T05:05:43.952Z,1018.68
2017-12-02T05:06:09.451Z,1018.64
2017-12-02T05:06:34.981Z,1018.66
2017-12-02T05:07:00.498Z,1018.67
2017-12-02T05:07:25.999Z,1018.62
2017-12-02T05:07:51.504Z,1018.65
2017-12-02T05:08:16.936Z,1018.62
2017-12-02T05:08:42.423Z,1018.61
2017-12-02T05:09:07.898Z,1018.59
2017-12-02T05:10:11.529Z,1018.66
2017-12-02T05:10:37.008Z,1018.64
2017-12-02T05:11:02.491Z,1018.68
2017-12-02T05:11:28.003Z,1018.65
2017-12-02T05:11:53.517Z,1018.66
2017-12-02T05:12:19.022Z,1018.64
2017-12-02T05:12:44.522Z,1018.62
2017-12-02T05:13:09.979Z,1018.62
2017-12-02T05:13:35.553Z,1018.62
2017-12-02T05:14:01.060Z,1018.65
2017-12-02T05:14:26.472Z,1018.64
2017-12-02T05:14:51.965Z,1018.69
2017-12-02T05:15:17.495Z,1018.64
2017-12-02T05:15:42.902Z,1018.67
2017-12-02T05:16:08.354Z,1018.67
2017-12-02T05:16:33.831Z,1018.71
2017-12-02T05:16:59.299Z,1018.69
2017-12-02T05:17:24.758Z,1018.67
2017-12-02T05:17:50.249Z,1018.69
2017-12-02T05:18:15.725Z,1018.65
2017-12-02T05:18:41.235Z,1018.69
2017-12-02T05:19:06.648Z,1018.67
2017-12-02T05:19:32.142Z,1018.65
2017-12-02T05:19:57.640Z,1018.68
2017-12-02T05:20:23.136Z,1018.63
2017-12-02T05:20:48.547Z,1018.69
2017-12-02T05:21:14.069Z,1018.64
2017-12-02T05:21:39.560Z,1018.67
2017-12-02T05:22:05.041Z,1018.67
2017-12-02T05:22:30.513Z,1018.68
2017-12-02T05:22:56.000Z,1018.67
2017-12-02T05:23:21.415Z,1018.66
2017-12-02T05:23:46.870Z,1018.69
2017-12-02T05:24:12.350Z,1018.69
2017-12-02T05:24:37.814Z,1018.71
2017-12-02T05:25:03.304Z,1018.68
2017-12-02T05:25:28.802Z,1018.72
2017-12-02T05:25:54.293Z,1018.73
2017-12-02T05:26:19.711Z,1018.75
2017-12-02T05:26:45.195Z,1018.8
2017-12-02T05:27:10.626Z,1018.7
2017-12-02T05:27:36.153Z,1018.75
2017-12-02T05:28:01.615Z,1018.81
2017-12-02T05:28:27.137Z,1018.75
2017-12-02T05:28:52.646Z,1018.77
2017-12-02T05:29:18.134Z,1018.76
2017-12-02T05:29:43.603Z,1018.81
2017-12-02T05:30:09.127Z,1018.77
2017-12-02T05:30:34.641Z,1018.77
2017-12-02T05:31:00.171Z,1018.8
2017-12-02T05:31:25.652Z,1018.82
2017-12-02T05:31:51.156Z,1018.81
2017-12-02T05:32:16.672Z,1018.82
2017-12-02T05:32:42.181Z,1018.84
2017-12-02T05:33:07.729Z,1018.87
2017-12-02T05:33:33.266Z,1018.83
2017-12-02T05:33:58.788Z,1018.79
2017-12-02T05:34:24.344Z,1018.82
2017-12-02T05:34:49.813Z,1018.82
2017-12-02T05:35:15.341Z,1018.9
2017-12-02T05:35:40.841Z,1018.86
2017-12-02T05:36:06.243Z,1018.89
2017-12-02T05:36:31.775Z,1018.86
2017-12-02T05:36:57.243Z,1018.87
2017-12-02T05:37:22.716Z,1018.85
2017-12-02T05:37:48.205Z,1018.86
2017-12-02T05:38:13.601Z,1018.91
2017-12-02T05:38:39.119Z,1018.9
2017-12-02T05:39:04.557Z,1018.86
2017-12-02T05:39:30.029Z,1018.88
2017-12-02T05:39:55.512Z,1018.92
2017-12-02T05:40:20.986Z,1018.88
2017-12-02T05:40:46.446Z,1018.88
2017-12-02T05:41:11.908Z,1018.88
2017-12-02T05:41:37.376Z,1018.89
2017-12-02T05:42:02.846Z,1018.95
2017-12-02T05:42:28.337Z,1018.94
2017-12-02T05:42:53.876Z,1018.93
2017-12-02T05:43:19.361Z,1018.97
2017-12-02T05:43:44.885Z,1018.96
2017-12-02T05:44:10.333Z,1018.98
2017-12-02T05:44:35.855Z,1019.03
2017-12-02T05:45:01.379Z,1019.04
2017-12-02T05:45:26.854Z,1019.02
2017-12-02T05:45:52.384Z,1019
2017-12-02T05:46:17.906Z,1019.04
2017-12-02T05:46:43.401Z,1019.07
2017-12-02T05:47:08.901Z,1019.04
2017-12-02T05:47:34.394Z,1019.07
2017-12-02T05:47:59.900Z,1019.06
2017-12-02T05:48:25.394Z,1019.09
2017-12-02T05:48:50.871Z,1019.03
2017-12-02T05:49:16.329Z,1019.05
2017-12-02T05:49:41.845Z,1019.07
2017-12-02T05:50:07.312Z,1019.05
2017-12-02T05:50:32.791Z,1019.06
2017-12-02T05:50:58.260Z,1019.04
2017-12-02T05:51:23.761Z,1019.01
2017-12-02T05:51:49.249Z,1019.07
2017-12-02T05:52:14.757Z,1019.11
2017-12-02T05:52:40.272Z,1019.05
2017-12-02T05:53:05.746Z,1019.06
2017-12-02T05:53:31.232Z,1019.07
2017-12-02T05:53:56.741Z,1019.07
2017-12-02T05:54:22.223Z,1019.08
2017-12-02T05:54:47.782Z,1019.08
2017-12-02T05:55:13.259Z,1019.08
2017-12-02T05:55:38.743Z,1019.12
2017-12-02T05:56:04.234Z,1019.09
2017-12-02T05:56:29.708Z,1019.14
2017-12-02T05:56:55.224Z,1019.12
2017-12-02T05:57:20.745Z,1019.13
2017-12-02T05:58:34.586Z,1019.21
2017-12-02T05:59:00.225Z,1019.21
2017-12-02T05:59:25.721Z,1019.21
2017-12-02T05:59:51.180Z,1019.19
2017-12-02T06:00:16.676Z,1019.17
2017-12-02T06:00:42.136Z,1019.19
2017-12-02T06:01:07.621Z,1019.22
2017-12-02T06:01:33.091Z,1019.23
2017-12-02T06:02:41.778Z,1019.24
2017-12-02T06:03:07.307Z,1019.27
2017-12-02T06:03:32.804Z,1019.3
2017-12-02T06:03:58.339Z,1019.28
2017-12-02T06:04:23.846Z,1019.29
2017-12-02T06:04:49.337Z,1019.3
2017-12-02T06:05:14.790Z,1019.31
2017-12-02T06:05:40.257Z,1019.33
2017-12-02T06:06:05.767Z,1019.32
2017-12-02T06:06:31.283Z,1019.31
2017-12-02T06:06:56.767Z,1019.34
2017-12-02T06:08:15.676Z,1019.36
2017-12-02T06:08:41.160Z,1019.38
2017-12-02T06:09:06.628Z,1019.34
2017-12-02T06:09:32.161Z,1019.35
2017-12-02T06:09:57.642Z,1019.39
2017-12-02T06:11:07.325Z,1019.38
2017-12-02T06:11:32.829Z,1019.4
2017-12-02T06:12:47.624Z,1019.39
2017-12-02T06:13:13.147Z,1019.43
2017-12-02T06:13:38.617Z,1019.44
2017-12-02T06:14:04.121Z,1019.45
2017-12-02T06:14:29.624Z,1019.46
2017-12-02T06:14:55.123Z,1019.45
2017-12-02T06:15:20.622Z,1019.46
2017-12-02T06:15:46.095Z,1019.53
2017-12-02T06:16:11.549Z,1019.49
2017-12-02T06:16:37.034Z,1019.5
2017-12-02T06:17:02.545Z,1019.47
2017-12-02T06:17:28.070Z,1019.49
2017-12-02T06:17:53.593Z,1019.47
2017-12-02T06:18:19.072Z,1019.54
2017-12-02T06:18:44.558Z,1019.52
2017-12-02T06:19:10.005Z,1019.55
2017-12-02T06:19:35.495Z,1019.52
2017-12-02T06:20:00.969Z,1019.54
2017-12-02T06:20:26.456Z,1019.54
2017-12-02T06:20:51.954Z,1019.56
2017-12-02T06:21:17.470Z,1019.53
2017-12-02T06:21:42.925Z,1019.54
2017-12-02T06:22:08.345Z,1019.58
2017-12-02T06:22:33.838Z,1019.53
2017-12-02T06:22:59.343Z,1019.6
2017-12-02T06:23:24.860Z,1019.57
2017-12-02T06:23:50.359Z,1019.58
2017-12-02T06:24:15.861Z,1019.55
2017-12-02T06:24:41.328Z,1019.6
2017-12-02T06:25:06.827Z,1019.58
2017-12-02T06:25:32.326Z,1019.56
2017-12-02T06:25:57.810Z,1019.59
2017-12-02T06:26:23.325Z,1019.57
2017-12-02T06:26:48.797Z,1019.59
2017-12-02T06:27:14.284Z,1019.59
2017-12-02T06:27:39.801Z,1019.56
2017-12-02T06:28:05.291Z,1019.59
2017-12-02T06:28:30.786Z,1019.63
2017-12-02T06:28:56.224Z,1019.6
2017-12-02T06:29:21.701Z,1019.6
2017-12-02T06:29:47.223Z,1019.58
2017-12-02T06:30:12.720Z,1019.58
2017-12-02T06:30:38.218Z,1019.58
2017-12-02T06:31:03.774Z,1019.59
2017-12-02T06:31:29.284Z,1019.58
2017-12-02T06:31:54.794Z,1019.62
2017-12-02T06:32:20.325Z,1019.63
2017-12-02T06:32:45.839Z,1019.64
2017-12-02T06:33:11.323Z,1019.63
2017-12-02T06:33:36.882Z,1019.65
2017-12-02T06:34:02.376Z,1019.67
2017-12-02T06:34:27.901Z,1019.68
2017-12-02T06:34:53.406Z,1019.69
2017-12-02T06:35:18.883Z,1019.68
2017-12-02T06:35:44.422Z,1019.71
2017-12-02T06:36:09.911Z,1019.66
2017-12-02T06:36:35.389Z,1019.7
2017-12-02T06:37:00.869Z,1019.71
2017-12-02T06:37:26.378Z,1019.67
2017-12-02T06:37:51.888Z,1019.73
2017-12-02T06:38:17.417Z,1019.74
2017-12-02T06:38:42.956Z,1019.73
2017-12-02T06:39:08.440Z,1019.71
2017-12-02T06:40:17.126Z,1019.73
2017-12-02T06:40:42.621Z,1019.77
2017-12-02T06:41:08.070Z,1019.78
2017-12-02T06:41:33.590Z,1019.76
2017-12-02T06:41:59.108Z,1019.77
2017-12-02T06:42:24.643Z,1019.77
2017-12-02T06:42:50.094Z,1019.79
2017-12-02T06:43:15.595Z,1019.77
2017-12-02T06:44:30.558Z,1019.76
2017-12-02T06:44:55.937Z,1019.82
2017-12-02T06:45:21.416Z,1019.77
2017-12-02T06:45:46.923Z,1019.82
2017-12-02T06:46:12.436Z,1019.77
2017-12-02T06:46:37.913Z,1019.77
2017-12-02T06:47:03.402Z,1019.76
2017-12-02T06:47:28.917Z,1019.77
2017-12-02T06:47:54.464Z,1019.81
2017-12-02T06:48:19.998Z,1019.81
2017-12-02T06:48:45.502Z,1019.8
2017-12-02T06:49:11.009Z,1019.84
2017-12-02T06:49:36.506Z,1019.81
2017-12-02T06:50:01.999Z,1019.8
2017-12-02T06:50:27.533Z,1019.84
2017-12-02T06:51:41.349Z,1019.85
2017-12-02T06:52:06.832Z,1019.83
2017-12-02T06:52:32.319Z,1019.82
2017-12-02T06:52:57.796Z,1019.85
2017-12-02T06:53:23.281Z,1019.86
2017-12-02T06:54:21.819Z,1019.84
2017-12-02T06:54:47.326Z,1019.84
2017-12-02T06:55:12.815Z,1019.87
2017-12-02T06:55:38.366Z,1019.86
2017-12-02T06:56:03.907Z,1019.86
2017-12-02T06:56:29.347Z,1019.85
2017-12-02T06:56:54.832Z,1019.83
2017-12-02T06:57:20.337Z,1019.89
2017-12-02T06:57:45.832Z,1019.84
2017-12-02T06:58:11.274Z,1019.82
2017-12-02T06:58:37.276Z,1019.89
2017-12-02T06:59:02.591Z,1019.85
2017-12-02T06:59:28.203Z,1019.84
2017-12-02T06:59:53.698Z,1019.82
2017-12-02T07:00:19.198Z,1019.85
2017-12-02T07:00:44.724Z,1019.87
2017-12-02T07:01:10.227Z,1019.86
2017-12-02T07:01:35.714Z,1019.87
2017-12-02T07:02:01.250Z,1019.86
2017-12-02T07:02:26.752Z,1019.85
2017-12-02T07:03:25.525Z,1019.86
2017-12-02T07:03:50.982Z,1019.86
2017-12-02T07:04:16.526Z,1019.87
2017-12-02T07:04:42.018Z,1019.89
2017-12-02T07:05:07.572Z,1019.87
2017-12-02T07:05:33.015Z,1019.86
2017-12-02T07:05:58.515Z,1019.83
2017-12-02T07:06:24.027Z,1019.91
2017-12-02T07:06:49.514Z,1019.83
2017-12-02T07:07:15.062Z,1019.87
2017-12-02T07:07:40.622Z,1019.83
2017-12-02T07:08:06.081Z,1019.8
2017-12-02T07:08:31.624Z,1019.84
2017-12-02T07:08:57.118Z,1019.82
2017-12-02T07:09:22.626Z,1019.84
2017-12-02T07:09:48.090Z,1019.86
2017-12-02T07:10:13.595Z,1019.8
2017-12-02T07:10:39.113Z,1019.79
2017-12-02T07:11:04.612Z,1019.82
2017-12-02T07:11:30.094Z,1019.83
2017-12-02T07:11:55.573Z,1019.81
2017-12-02T07:12:21.111Z,1019.83
2017-12-02T07:12:46.585Z,1019.82
2017-12-02T07:13:12.053Z,1019.81
2017-12-02T07:13:37.538Z,1019.82
2017-12-02T07:14:03.009Z,1019.79
2017-12-02T07:14:28.509Z,1019.82
2017-12-02T07:14:53.956Z,1019.82
2017-12-02T07:15:19.456Z,1019.84
2017-12-02T07:15:44.968Z,1019.84
2017-12-02T07:16:10.449Z,1019.83
2017-12-02T07:16:35.965Z,1019.82
2017-12-02T07:17:01.459Z,1019.83
2017-12-02T07:17:26.917Z,1019.85
2017-12-02T07:17:52.389Z,1019.84
2017-12-02T07:18:17.837Z,1019.88
2017-12-02T07:18:43.342Z,1019.84
2017-12-02T07:19:08.838Z,1019.86
2017-12-02T07:19:34.310Z,1019.86
2017-12-02T07:19:59.774Z,1019.84
2017-12-02T07:20:25.255Z,1019.91
2017-12-02T07:20:50.755Z,1019.83
2017-12-02T07:21:16.258Z,1019.83
2017-12-02T07:21:41.767Z,1019.9
2017-12-02T07:22:07.288Z,1019.9
2017-12-02T07:22:32.808Z,1019.9
2017-12-02T07:22:58.256Z,1019.88
2017-12-02T07:23:23.755Z,1019.88
2017-12-02T07:23:49.243Z,1019.92
2017-12-02T07:24:14.734Z,1019.91
2017-12-02T07:24:40.217Z,1019.91
2017-12-02T07:25:05.675Z,1019.91
2017-12-02T07:25:31.109Z,1019.94
2017-12-02T07:25:56.593Z,1019.9
2017-12-02T07:26:22.098Z,1019.92
2017-12-02T07:26:47.600Z,1019.89
2017-12-02T07:27:13.097Z,1019.95
2017-12-02T07:27:38.589Z,1019.93
2017-12-02T07:28:04.066Z,1019.98
2017-12-02T07:29:07.682Z,1019.95
2017-12-02T07:29:33.160Z,1019.98
2017-12-02T07:29:58.650Z,1019.93
2017-12-02T07:30:24.158Z,1019.98
2017-12-02T07:30:49.654Z,1019.97
2017-12-02T07:31:15.160Z,1019.93
2017-12-02T07:31:40.638Z,1019.92
2017-12-02T07:32:06.117Z,1019.93
2017-12-02T07:32:31.592Z,1019.91
2017-12-02T07:32:57.088Z,1019.93
2017-12-02T07:33:22.610Z,1019.91
2017-12-02T07:33:48.092Z,1019.91
2017-12-02T07:34:13.549Z,1019.89
2017-12-02T07:35:27.317Z,1019.9
2017-12-02T07:35:52.791Z,1019.97
2017-12-02T07:36:18.268Z,1019.92
2017-12-02T07:36:43.782Z,1019.96
2017-12-02T07:37:09.297Z,1019.95
2017-12-02T07:37:34.809Z,1019.95
2017-12-02T07:38:00.266Z,1019.92
2017-12-02T07:38:25.727Z,1019.95
2017-12-02T07:38:51.224Z,1019.93
2017-12-02T07:39:16.743Z,1019.93
2017-12-02T07:39:42.207Z,1019.95
2017-12-02T07:40:07.706Z,1019.91
2017-12-02T07:40:33.190Z,1019.92
2017-12-02T07:40:58.705Z,1019.91
2017-12-02T07:42:07.398Z,1019.91
2017-12-02T07:42:32.874Z,1019.92
2017-12-02T07:42:58.376Z,1019.93
2017-12-02T07:43:23.848Z,1019.89
2017-12-02T07:43:49.350Z,1019.91
2017-12-02T07:44:14.822Z,1019.86
2017-12-02T07:44:40.365Z,1019.89
2017-12-02T07:45:05.835Z,1019.85
2017-12-02T07:45:31.311Z,1019.87
2017-12-02T07:45:56.805Z,1019.86
2017-12-02T07:46:22.275Z,1019.84
2017-12-02T07:46:47.732Z,1019.86
2017-12-02T07:47:13.216Z,1019.85
2017-12-02T07:47:38.705Z,1019.82
2017-12-02T07:48:04.213Z,1019.81
2017-12-02T07:48:29.691Z,1019.87
2017-12-02T07:48:55.179Z,1019.84
2017-12-02T07:49:20.666Z,1019.83
2017-12-02T07:49:46.193Z,1019.85
2017-12-02T07:50:11.659Z,1019.83
2017-12-02T07:50:37.149Z,1019.83
2017-12-02T07:51:02.632Z,1019.89
2017-12-02T07:51:28.155Z,1019.86
2017-12-02T07:51:53.590Z,1019.86
2017-12-02T07:53:07.376Z,1019.89
2017-12-02T07:53:32.868Z,1019.87
2017-12-02T07:53:58.358Z,1019.88
2017-12-02T07:54:23.856Z,1019.9
2017-12-02T07:54:49.307Z,1019.88
2017-12-02T07:55:14.822Z,1019.92
2017-12-02T07:55:40.357Z,1019.88
2017-12-02T07:56:05.802Z,1019.88
2017-12-02T07:56:31.309Z,1019.88
2017-12-02T07:56:56.801Z,1019.89
2017-12-02T07:57:22.297Z,1019.91
2017-12-02T07:57:47.822Z,1019.92
2017-12-02T07:58:56.521Z,1019.96
2017-12-02T07:59:22.081Z,1019.95
2017-12-02T07:59:47.595Z,1019.97
2017-12-02T08:00:13.098Z,1019.93
2017-12-02T08:00:38.563Z,1019.95
2017-12-02T08:01:04.088Z,1019.94
2017-12-02T08:01:29.584Z,1019.94
2017-12-02T08:01:55.085Z,1019.95
2017-12-02T08:02:20.636Z,1019.92
2017-12-02T08:02:46.150Z,1019.98
2017-12-02T08:03:11.660Z,1019.94
2017-12-02T08:03:37.156Z,1019.97
2017-12-02T08:04:02.650Z,1019.99
2017-12-02T08:04:28.145Z,1020
2017-12-02T08:04:53.672Z,1020
2017-12-02T08:05:19.167Z,1019.97
2017-12-02T08:05:44.629Z,1019.98
2017-12-02T08:06:10.162Z,1019.95
2017-12-02T08:06:35.642Z,1019.95
2017-12-02T08:07:01.130Z,1019.97
2017-12-02T08:07:26.635Z,1019.97
2017-12-02T08:07:52.130Z,1019.94
2017-12-02T08:08:17.634Z,1019.97
2017-12-02T08:08:43.115Z,1019.98
2017-12-02T08:09:08.658Z,1019.96
2017-12-02T08:09:34.225Z,1019.95
2017-12-02T08:09:59.698Z,1019.95
2017-12-02T08:10:25.215Z,1019.96
2017-12-02T08:10:50.732Z,1019.94
2017-12-02T08:11:16.231Z,1019.94
2017-12-02T08:11:41.702Z,1019.95
2017-12-02T08:12:07.202Z,1019.93
2017-12-02T08:12:32.781Z,1019.91
2017-12-02T08:12:58.264Z,1019.93
2017-12-02T08:13:23.700Z,1019.97
2017-12-02T08:13:49.211Z,1019.97
2017-12-02T08:14:14.668Z,1019.92
2017-12-02T08:14:40.211Z,1019.94
2017-12-02T08:15:05.694Z,1019.98
2017-12-02T08:15:31.161Z,1019.98
2017-12-02T08:16:34.802Z,1019.97
2017-12-02T08:17:00.314Z,1020
2017-12-02T08:17:25.787Z,1020.01
2017-12-02T08:17:51.309Z,1020.02
2017-12-02T08:18:16.796Z,1020.01
2017-12-02T08:18:42.290Z,1020
2017-12-02T08:19:07.779Z,1020.03
2017-12-02T08:19:33.279Z,1020.01
2017-12-02T08:19:58.785Z,1020.03
2017-12-02T08:20:24.257Z,1020.03
2017-12-02T08:20:49.791Z,1020.01
2017-12-02T08:21:15.323Z,1020.03
2017-12-02T08:21:40.796Z,1020.05
2017-12-02T08:22:06.295Z,1020.03
2017-12-02T08:22:31.805Z,1020.03
2017-12-02T08:22:57.326Z,1020.02
2017-12-02T08:24:16.263Z,1019.99
2017-12-02T08:24:41.739Z,1020.05
2017-12-02T08:25:50.421Z,1020.04
2017-12-02T08:26:15.913Z,1020.05
2017-12-02T08:26:41.456Z,1020.03
2017-12-02T08:27:06.913Z,1020.06
2017-12-02T08:27:32.406Z,1020.03
2017-12-02T08:27:57.917Z,1020.07
2017-12-02T08:28:23.499Z,1020.03
2017-12-02T08:28:49.008Z,1020.07
2017-12-02T08:29:14.513Z,1020.07
2017-12-02T08:29:40.002Z,1020.12
2017-12-02T08:30:05.500Z,1020.11
2017-12-02T08:30:31.070Z,1020.14
2017-12-02T08:30:56.597Z,1020.11
2017-12-02T08:31:22.099Z,1020.13
2017-12-02T08:31:47.607Z,1020.12
2017-12-02T08:32:13.089Z,1020.17
2017-12-02T08:32:38.599Z,1020.19
2017-12-02T08:33:04.113Z,1020.22
2017-12-02T08:33:29.603Z,1020.17
2017-12-02T08:33:55.080Z,1020.17
2017-12-02T08:34:20.573Z,1020.17
2017-12-02T08:34:46.153Z,1020.16
2017-12-02T08:35:11.631Z,1020.19
2017-12-02T08:35:37.155Z,1020.18
2017-12-02T08:36:02.658Z,1020.17
2017-12-02T08:36:28.131Z,1020.15
2017-12-02T08:36:53.652Z,1020.15
2017-12-02T08:37:19.194Z,1020.18
2017-12-02T08:37:44.690Z,1020.18
2017-12-02T08:38:10.227Z,1020.15
2017-12-02T08:38:35.761Z,1020.18
2017-12-02T08:39:01.271Z,1020.13
2017-12-02T08:39:26.756Z,1020.15
2017-12-02T08:39:52.271Z,1020.18
2017-12-02T08:40:17.766Z,1020.18
2017-12-02T08:40:43.275Z,1020.16
2017-12-02T08:41:08.790Z,1020.18
2017-12-02T08:41:34.263Z,1020.16
2017-12-02T08:41:59.701Z,1020.18
2017-12-02T08:42:25.170Z,1020.23
2017-12-02T08:42:50.696Z,1020.19
2017-12-02T08:43:16.179Z,1020.2
2017-12-02T08:43:41.690Z,1020.25
2017-12-02T08:44:07.201Z,1020.26
2017-12-02T08:44:32.689Z,1020.28
2017-12-02T08:45:51.618Z,1020.33
2017-12-02T08:46:17.111Z,1020.35
2017-12-02T08:46:42.595Z,1020.33
2017-12-02T08:47:08.099Z,1020.31
2017-12-02T08:47:33.591Z,1020.33
2017-12-02T08:47:59.055Z,1020.33
2017-12-02T08:48:24.532Z,1020.3
2017-12-02T08:48:50.036Z,1020.3
2017-12-02T08:49:15.546Z,1020.28
2017-12-02T08:49:41.051Z,1020.31
2017-12-02T08:50:06.520Z,1020.29
2017-12-02T08:50:32.020Z,1020.31
2017-12-02T08:50:57.483Z,1020.26
2017-12-02T08:51:22.982Z,1020.32
2017-12-02T08:51:48.526Z,1020.3
2017-12-02T08:52:14.006Z,1020.29
2017-12-02T08:52:39.542Z,1020.32
2017-12-02T08:53:05.044Z,1020.34
2017-12-02T08:53:30.580Z,1020.36
2017-12-02T08:53:56.088Z,1020.35
2017-12-02T08:54:21.572Z,1020.42
2017-12-02T08:54:47.100Z,1020.41
2017-12-02T08:55:12.614Z,1020.43
2017-12-02T08:55:38.174Z,1020.4
2017-12-02T08:56:03.652Z,1020.4
2017-12-02T08:56:29.141Z,1020.42
2017-12-02T08:56:54.641Z,1020.45
2017-12-02T08:57:20.113Z,1020.49
2017-12-02T08:57:45.616Z,1020.47
2017-12-02T08:58:11.115Z,1020.46
2017-12-02T08:58:36.615Z,1020.46
2017-12-02T08:59:02.110Z,1020.45
2017-12-02T08:59:27.616Z,1020.49
2017-12-02T08:59:53.093Z,1020.5
2017-12-02T09:00:18.607Z,1020.48
2017-12-02T09:00:44.131Z,1020.46
2017-12-02T09:01:09.628Z,1020.45
2017-12-02T09:01:35.154Z,1020.5
2017-12-02T09:02:00.643Z,1020.53
2017-12-02T09:02:26.122Z,1020.5
2017-12-02T09:02:51.608Z,1020.49
2017-12-02T09:03:17.089Z,1020.49
2017-12-02T09:03:42.631Z,1020.5
2017-12-02T09:04:08.124Z,1020.51
2017-12-02T09:04:33.609Z,1020.53
2017-12-02T09:04:59.106Z,1020.5
2017-12-02T09:05:24.586Z,1020.5
2017-12-02T09:05:50.111Z,1020.53
2017-12-02T09:06:15.566Z,1020.48
2017-12-02T09:06:41.039Z,1020.52
2017-12-02T09:07:06.517Z,1020.47
2017-12-02T09:07:32.034Z,1020.45
2017-12-02T09:07:57.533Z,1020.49
2017-12-02T09:08:23.063Z,1020.54
2017-12-02T09:08:48.541Z,1020.47
2017-12-02T09:09:14.034Z,1020.51
2017-12-02T09:09:39.517Z,1020.51
2017-12-02T09:10:05.007Z,1020.51
2017-12-02T09:10:30.483Z,1020.5
2017-12-02T09:10:56.023Z,1020.5
2017-12-02T09:11:21.487Z,1020.52
2017-12-02T09:11:46.969Z,1020.53
2017-12-02T09:12:50.559Z,1020.57
2017-12-02T09:13:16.054Z,1020.53
2017-12-02T09:13:41.538Z,1020.56
2017-12-02T09:14:07.032Z,1020.55
2017-12-02T09:14:32.476Z,1020.56
2017-12-02T09:15:30.983Z,1020.54
2017-12-02T09:15:56.475Z,1020.63
2017-12-02T09:16:21.957Z,1020.6
2017-12-02T09:16:47.439Z,1020.59
2017-12-02T09:17:12.895Z,1020.62
2017-12-02T09:17:38.378Z,1020.61
2017-12-02T09:18:03.881Z,1020.62
2017-12-02T09:18:29.379Z,1020.63
2017-12-02T09:18:54.887Z,1020.61
2017-12-02T09:19:20.366Z,1020.6
2017-12-02T09:19:45.860Z,1020.59
2017-12-02T09:20:11.338Z,1020.63
2017-12-02T09:20:36.854Z,1020.62
2017-12-02T09:21:02.362Z,1020.58
2017-12-02T09:21:27.864Z,1020.64
2017-12-02T09:21:53.326Z,1020.68
2017-12-02T09:22:18.865Z,1020.69
2017-12-02T09:22:44.369Z,1020.71
2017-12-02T09:23:09.871Z,1020.65
2017-12-02T09:23:35.353Z,1020.69
2017-12-02T09:24:00.828Z,1020.67
2017-12-02T09:24:26.286Z,1020.68
2017-12-02T09:24:51.815Z,1020.7
2017-12-02T09:25:17.329Z,1020.72
2017-12-02T09:25:42.824Z,1020.75
2017-12-02T09:26:08.315Z,1020.72
2017-12-02T09:26:33.827Z,1020.75
2017-12-02T09:26:59.342Z,1020.74
2017-12-02T09:27:24.817Z,1020.75
2017-12-02T09:28:38.566Z,1020.72
2017-12-02T09:29:04.063Z,1020.71
2017-12-02T09:29:29.553Z,1020.73
2017-12-02T09:29:55.053Z,1020.73
2017-12-02T09:30:20.518Z,1020.74
2017-12-02T09:30:46.049Z,1020.76
2017-12-02T09:31:11.518Z,1020.73
2017-12-02T09:31:37.026Z,1020.73
2017-12-02T09:32:02.528Z,1020.77
2017-12-02T09:32:28.020Z,1020.75
2017-12-02T09:32:53.495Z,1020.75
2017-12-02T09:33:18.996Z,1020.79
2017-12-02T09:33:44.536Z,1020.83
2017-12-02T09:34:10.031Z,1020.8
2017-12-02T09:34:35.532Z,1020.83
2017-12-02T09:35:01.044Z,1020.82
2017-12-02T09:35:26.527Z,1020.83
2017-12-02T09:35:52.077Z,1020.85
2017-12-02T09:36:17.517Z,1020.85
2017-12-02T09:36:42.983Z,1020.87
2017-12-02T09:37:08.483Z,1020.85
2017-12-02T09:37:33.953Z,1020.89
2017-12-02T09:37:59.494Z,1020.88
2017-12-02T09:38:24.993Z,1020.9
2017-12-02T09:38:50.497Z,1020.96
2017-12-02T09:39:15.989Z,1020.94
2017-12-02T09:39:41.485Z,1020.95
2017-12-02T09:40:07.016Z,1020.91
2017-12-02T09:40:32.546Z,1020.93
2017-12-02T09:40:58.015Z,1020.95
2017-12-02T09:41:23.506Z,1020.94
2017-12-02T09:41:48.986Z,1020.91
2017-12-02T09:42:14.501Z,1020.96
2017-12-02T09:42:39.984Z,1020.97
2017-12-02T09:43:43.580Z,1020.97
2017-12-02T09:44:09.076Z,1020.98
2017-12-02T09:44:34.572Z,1021.01
2017-12-02T09:45:00.036Z,1021.03
2017-12-02T09:45:25.541Z,1020.99
2017-12-02T09:45:51.027Z,1021
2017-12-02T09:46:16.558Z,1021.04
2017-12-02T09:46:42.028Z,1021.04
2017-12-02T09:47:07.512Z,1021.01
2017-12-02T09:47:33.055Z,1021.03
2017-12-02T09:47:58.519Z,1021.04
2017-12-02T09:48:24.024Z,1021.07
2017-12-02T09:48:49.529Z,1021.04
2017-12-02T09:49:15.035Z,1021.11
2017-12-02T09:49:40.532Z,1021.06
2017-12-02T09:50:06.065Z,1021.05
2017-12-02T09:50:31.531Z,1021.03
2017-12-02T09:50:57.044Z,1021.05
2017-12-02T09:51:22.555Z,1021.05
2017-12-02T09:51:48.052Z,1020.99
2017-12-02T09:52:13.532Z,1021.02
2017-12-02T09:52:39.001Z,1021.03
2017-12-02T09:53:04.528Z,1021.02
2017-12-02T09:53:30.011Z,1021.04
2017-12-02T09:53:55.523Z,1021.03
2017-12-02T09:54:21.018Z,1021.06
2017-12-02T09:54:46.519Z,1021.05
2017-12-02T09:55:11.982Z,1021.06
2017-12-02T09:55:37.501Z,1021.03
2017-12-02T09:56:56.386Z,1021.04
2017-12-02T09:57:21.878Z,1021.03
2017-12-02T09:57:47.366Z,1021.09
2017-12-02T09:58:12.839Z,1021.06
2017-12-02T09:58:38.305Z,1021.04
2017-12-02T09:59:03.781Z,1021.02
2017-12-02T09:59:29.273Z,1021.08
2017-12-02T09:59:54.785Z,1021.07
2017-12-02T10:00:20.292Z,1021.05
2017-12-02T10:00:45.818Z,1021.06
2017-12-02T10:01:11.333Z,1021.08
2017-12-02T10:01:36.794Z,1021.09
2017-12-02T10:02:02.332Z,1021.07
2017-12-02T10:02:27.806Z,1021.1
2017-12-02T10:02:53.274Z,1021.08
2017-12-02T10:03:18.765Z,1021.1
2017-12-02T10:03:44.273Z,1021.11
2017-12-02T10:04:09.768Z,1021.12
2017-12-02T10:04:35.258Z,1021.08
2017-12-02T10:05:00.719Z,1021.09
2017-12-02T10:05:26.219Z,1021.08
2017-12-02T10:05:51.733Z,1021.07
2017-12-02T10:06:17.254Z,1021.09
2017-12-02T10:06:42.672Z,1021.09
2017-12-02T10:07:08.125Z,1021.1
2017-12-02T10:07:33.608Z,1021.09
2017-12-02T10:07:59.103Z,1021.12
2017-12-02T10:08:24.562Z,1021.12
2017-12-02T10:08:50.037Z,1021.13
2017-12-02T10:09:15.560Z,1021.12
2017-12-02T10:09:41.012Z,1021.13
2017-12-02T10:10:06.482Z,1021.11
2017-12-02T10:10:31.948Z,1021.11
2017-12-02T10:10:57.461Z,1021.17
2017-12-02T10:11:22.975Z,1021.11
2017-12-02T10:11:48.452Z,1021.05
2017-12-02T10:12:13.913Z,1021.05
2017-12-02T10:12:39.412Z,1021.04
2017-12-02T10:13:04.844Z,1021.07
2017-12-02T10:13:30.358Z,1021.04
2017-12-02T10:13:55.818Z,1020.99
2017-12-02T10:14:21.279Z,1021.01
2017-12-02T10:14:46.799Z,1020.98
2017-12-02T10:15:12.275Z,1021.02
2017-12-02T10:15:37.762Z,1020.98
2017-12-02T10:16:03.295Z,1020.94
2017-12-02T10:17:17.056Z,1020.97
2017-12-02T10:17:42.540Z,1020.97
2017-12-02T10:18:08.034Z,1020.99
2017-12-02T10:18:33.517Z,1020.97
2017-12-02T10:18:58.969Z,1020.96
2017-12-02T10:19:24.444Z,1021
2017-12-02T10:19:49.912Z,1021.01
2017-12-02T10:20:15.402Z,1020.95
2017-12-02T10:20:40.899Z,1020.98
2017-12-02T10:21:06.398Z,1020.95
2017-12-02T10:21:31.879Z,1020.91
2017-12-02T10:21:57.366Z,1020.96
2017-12-02T10:22:22.804Z,1020.99
2017-12-02T10:22:48.291Z,1020.97
2017-12-02T10:23:13.757Z,1021.02
2017-12-02T10:23:39.232Z,1020.98
2017-12-02T10:24:04.732Z,1021.02
2017-12-02T10:24:30.177Z,1020.98
2017-12-02T10:24:55.670Z,1021.02
2017-12-02T10:25:21.158Z,1021.04
2017-12-02T10:25:46.663Z,1021.01
2017-12-02T10:26:12.168Z,1021.02
2017-12-02T10:26:37.701Z,1021.05
2017-12-02T10:27:03.121Z,1021.01
2017-12-02T10:27:28.641Z,1021.02
2017-12-02T10:27:54.115Z,1021.02
2017-12-02T10:28:19.594Z,1021.02
2017-12-02T10:28:45.067Z,1021.01
2017-12-02T10:29:10.578Z,1021.01
2017-12-02T10:29:36.090Z,1021.01